createdAt,value
2019-05-26T00:02:20.585Z,76.79
2019-05-26T00:04:49.792Z,77.02
2019-05-26T00:07:30.293Z,76.47
2019-05-26T00:09:50.151Z,76.91
2019-05-26T00:12:20.707Z,77.45
2019-05-26T00:14:50.078Z,77.72
2019-05-26T00:17:18.859Z,76.16
2019-05-26T00:19:47.750Z,74.92
2019-05-26T00:22:16.642Z,76.51
2019-05-26T00:24:45.535Z,75.29
2019-05-26T00:27:14.423Z,75.16
2019-05-26T00:29:43.313Z,75.22
2019-05-26T00:32:12.309Z,74.57
2019-05-26T00:34:41.197Z,75.17
2019-05-26T00:37:10.396Z,74.95
2019-05-26T00:39:39.184Z,75.04
2019-05-26T00:42:08.268Z,74.98
2019-05-26T00:44:37.171Z,75.17
2019-05-26T00:47:06.063Z,75.69
2019-05-26T00:49:35.057Z,76.53
2019-05-26T00:52:04.054Z,77.85
2019-05-26T00:54:33.045Z,77.65
2019-05-26T00:57:02.025Z,78.38
2019-05-26T00:59:30.826Z,77.46
2019-05-26T01:01:59.717Z,78.37
2019-05-26T01:04:28.609Z,78.44
2019-05-26T01:06:57.405Z,77.32
2019-05-26T01:09:26.288Z,76.97
2019-05-26T01:11:55.179Z,77.98
2019-05-26T01:14:24.071Z,77.81
2019-05-26T01:16:55.820Z,78.29
2019-05-26T01:19:24.825Z,78.24
2019-05-26T01:21:53.612Z,77.98
2019-05-26T01:24:22.505Z,79.57
2019-05-26T01:26:51.394Z,79.97
2019-05-26T01:29:20.285Z,79.55
2019-05-26T01:31:49.177Z,78.75
2019-05-26T01:34:18.254Z,77.98
2019-05-26T01:36:47.444Z,77.46
2019-05-26T01:39:16.267Z,78.31
2019-05-26T01:41:45.154Z,80.22
2019-05-26T01:44:14.150Z,79.70
2019-05-26T01:46:42.935Z,79.49
2019-05-26T01:49:12.134Z,79.09
2019-05-26T01:51:40.921Z,78.41
2019-05-26T01:54:10.841Z,79.84
2019-05-26T01:56:39.728Z,80.86
2019-05-26T01:59:09.642Z,79.97
2019-05-26T02:01:38.532Z,79.97
2019-05-26T02:04:07.869Z,79.74
2019-05-26T02:06:36.727Z,79.96
2019-05-26T02:09:07.822Z,84.46
2019-05-26T02:11:37.786Z,83.77
2019-05-26T02:14:06.880Z,83.39
2019-05-26T02:16:35.823Z,83.10
2019-05-26T02:19:04.835Z,82.73
2019-05-26T02:21:33.758Z,81.33
2019-05-26T02:24:02.549Z,81.07
2019-05-26T02:26:31.336Z,81.32
2019-05-26T02:29:00.126Z,81.25
2019-05-26T02:31:28.916Z,81.25
2019-05-26T02:33:57.807Z,80.81
2019-05-26T02:36:26.698Z,80.87
2019-05-26T02:39:02.628Z,80.94
2019-05-26T02:41:26.123Z,80.77
2019-05-26T02:43:55.930Z,80.71
2019-05-26T02:46:24.827Z,80.73
2019-05-26T02:48:53.722Z,81.53
2019-05-26T02:51:22.606Z,81.30
2019-05-26T02:53:51.497Z,81.93
2019-05-26T02:56:20.974Z,81.46
2019-05-26T02:58:49.795Z,81.89
2019-05-26T03:01:19.100Z,81.97
2019-05-26T03:03:48.084Z,81.69
2019-05-26T03:06:17.665Z,80.50
2019-05-26T03:08:49.786Z,80.96
2019-05-26T03:11:19.734Z,81.40
2019-05-26T03:13:50.062Z,82.78
2019-05-26T03:16:21.039Z,82.61
2019-05-26T03:18:51.985Z,82.85
2019-05-26T03:21:22.060Z,82.71
2019-05-26T03:23:53.759Z,82.43
2019-05-26T03:26:24.079Z,81.08
2019-05-26T03:28:52.878Z,81.36
2019-05-26T03:31:21.762Z,81.48
2019-05-26T03:33:50.660Z,82.54
2019-05-26T03:36:19.544Z,82.08
2019-05-26T03:38:48.433Z,81.40
2019-05-26T03:41:17.333Z,80.90
2019-05-26T03:43:46.216Z,80.56
2019-05-26T03:46:20.173Z,80.56
2019-05-26T03:48:49.837Z,81.64
2019-05-26T03:51:18.727Z,81.92
2019-05-26T03:53:47.720Z,82.16
2019-05-26T03:56:16.716Z,82.18
2019-05-26T03:58:45.604Z,82.64
2019-05-26T04:01:14.512Z,83.37
2019-05-26T04:03:43.489Z,83.21
2019-05-26T04:06:12.380Z,82.50
2019-05-26T04:08:41.272Z,82.21
2019-05-26T04:11:11.237Z,81.28
2019-05-26T04:13:43.859Z,82.09
2019-05-26T04:16:12.654Z,82.59
2019-05-26T04:18:41.447Z,82.14
2019-05-26T04:21:10.951Z,82.04
2019-05-26T04:23:39.848Z,82.10
2019-05-26T04:26:09.062Z,82.49
2019-05-26T04:28:37.930Z,82.93
2019-05-26T04:31:06.828Z,82.65
2019-05-26T04:33:35.723Z,81.98
2019-05-26T04:36:04.707Z,82.17
2019-05-26T04:38:33.598Z,82.37
2019-05-26T04:41:02.521Z,81.38
2019-05-26T04:43:31.379Z,82.26
2019-05-26T04:46:00.170Z,82.26
2019-05-26T04:48:29.062Z,81.92
2019-05-26T04:50:57.950Z,81.62
2019-05-26T04:53:26.843Z,82.27
2019-05-26T04:55:55.733Z,81.95
2019-05-26T04:58:24.629Z,81.84
2019-05-26T05:00:53.413Z,82.44
2019-05-26T05:03:22.307Z,82.77
2019-05-26T05:05:51.197Z,83.12
2019-05-26T05:08:20.087Z,84.37
2019-05-26T05:10:49.491Z,82.26
2019-05-26T05:13:18.379Z,83.35
2019-05-26T05:15:47.271Z,81.86
2019-05-26T05:18:16.060Z,82.87
2019-05-26T05:20:44.952Z,82.00
2019-05-26T05:23:13.947Z,81.66
2019-05-26T05:25:42.836Z,81.62
2019-05-26T05:28:12.034Z,82.86
2019-05-26T05:30:40.824Z,81.37
2019-05-26T05:33:10.127Z,81.29
2019-05-26T05:35:39.017Z,80.70
2019-05-26T05:38:08.010Z,80.92
2019-05-26T05:40:36.903Z,81.82
2019-05-26T05:43:05.796Z,81.58
2019-05-26T05:45:34.689Z,82.32
2019-05-26T05:48:04.579Z,80.29
2019-05-26T05:50:33.388Z,80.11
2019-05-26T05:53:02.281Z,81.59
2019-05-26T05:55:31.170Z,81.88
2019-05-26T05:58:00.061Z,83.29
2019-05-26T06:00:29.468Z,82.54
2019-05-26T06:02:58.358Z,83.24
2019-05-26T06:05:27.245Z,82.47
2019-05-26T06:07:56.137Z,81.19
2019-05-26T06:10:25.028Z,81.36
2019-05-26T06:12:53.964Z,81.72
2019-05-26T06:15:23.016Z,82.43
2019-05-26T06:17:51.808Z,81.38
2019-05-26T06:20:20.794Z,80.64
2019-05-26T06:22:49.687Z,79.74
2019-05-26T06:25:18.930Z,79.74
2019-05-26T06:27:47.883Z,80.59
2019-05-26T06:30:17.334Z,80.38
2019-05-26T06:32:46.277Z,80.69
2019-05-26T06:35:15.856Z,80.55
2019-05-26T06:37:44.675Z,80.17
2019-05-26T06:40:14.242Z,78.94
2019-05-26T06:42:43.174Z,79.55
2019-05-26T06:45:12.884Z,78.75
2019-05-26T06:47:41.673Z,77.53
2019-05-26T06:50:11.846Z,78.43
2019-05-26T06:52:40.686Z,79.63
2019-05-26T06:55:10.923Z,78.92
2019-05-26T06:57:39.797Z,77.63
2019-05-26T07:00:09.079Z,76.93
2019-05-26T07:02:38.004Z,76.34
2019-05-26T07:05:08.479Z,78.68
2019-05-26T07:07:37.309Z,77.14
2019-05-26T07:10:07.191Z,76.98
2019-05-26T07:12:36.319Z,79.43
2019-05-26T07:15:08.347Z,79.28
2019-05-26T07:17:37.177Z,79.80
2019-05-26T07:20:07.458Z,78.85
2019-05-26T07:22:36.391Z,77.45
2019-05-26T07:25:07.175Z,76.19
2019-05-26T07:27:36.117Z,76.77
2019-05-26T07:30:07.405Z,76.81
2019-05-26T07:32:36.337Z,75.09
2019-05-26T07:35:09.046Z,73.70
2019-05-26T07:37:37.826Z,74.62
2019-05-26T07:40:07.741Z,74.28
2019-05-26T07:42:36.634Z,73.71
2019-05-26T07:45:07.286Z,74.18
2019-05-26T07:47:36.190Z,74.25
2019-05-26T07:50:06.901Z,76.53
2019-05-26T07:52:35.802Z,76.27
2019-05-26T07:55:08.194Z,73.46
2019-05-26T07:57:37.048Z,72.89
2019-05-26T08:00:07.886Z,72.58
2019-05-26T08:02:36.675Z,71.13
2019-05-26T08:05:09.462Z,72.11
2019-05-26T08:07:38.347Z,71.54
2019-05-26T08:10:08.035Z,73.70
2019-05-26T08:12:36.950Z,73.74
2019-05-26T08:15:09.403Z,73.45
2019-05-26T08:17:39.874Z,72.49
2019-05-26T08:20:11.491Z,72.17
2019-05-26T08:22:40.402Z,71.92
2019-05-26T08:25:10.216Z,70.22
2019-05-26T08:27:39.108Z,70.16
2019-05-26T08:30:08.618Z,70.50
2019-05-26T08:32:37.498Z,71.19
2019-05-26T08:35:08.249Z,73.62
2019-05-26T08:37:39.999Z,71.24
2019-05-26T08:40:19.638Z,70.49
2019-05-26T08:42:52.226Z,69.76
2019-05-26T08:45:22.721Z,71.31
2019-05-26T08:47:52.198Z,67.05
2019-05-26T08:50:21.990Z,69.14
2019-05-26T08:52:50.850Z,66.37
2019-05-26T08:55:19.950Z,65.34
2019-05-26T08:57:48.836Z,65.05
2019-05-26T09:00:18.141Z,64.05
2019-05-26T09:02:47.030Z,65.51
2019-05-26T09:05:16.270Z,65.12
2019-05-26T09:07:45.117Z,64.80
2019-05-26T09:10:14.460Z,65.54
2019-05-26T09:12:43.413Z,64.06
2019-05-26T09:15:13.635Z,63.95
2019-05-26T09:17:42.522Z,62.29
2019-05-26T09:20:13.521Z,61.98
2019-05-26T09:22:42.624Z,63.51
2019-05-26T09:25:12.567Z,62.75
2019-05-26T09:27:41.374Z,62.79
2019-05-26T09:30:11.087Z,61.59
2019-05-26T09:32:41.812Z,61.96
2019-05-26T09:35:12.852Z,61.37
2019-05-26T09:37:41.750Z,61.14
2019-05-26T09:40:11.333Z,62.40
2019-05-26T09:42:40.246Z,60.93
2019-05-26T09:45:12.380Z,62.22
2019-05-26T09:47:41.304Z,61.78
2019-05-26T09:50:11.320Z,59.72
2019-05-26T09:52:40.214Z,61.20
2019-05-26T09:55:11.623Z,61.01
2019-05-26T09:57:40.451Z,60.19
2019-05-26T10:00:15.855Z,60.92
2019-05-26T10:02:43.048Z,60.92
2019-05-26T10:05:12.853Z,59.68
2019-05-26T10:07:41.754Z,59.78
2019-05-26T10:10:12.219Z,59.43
2019-05-26T10:12:41.274Z,61.37
2019-05-26T10:15:10.995Z,60.11
2019-05-26T10:17:39.978Z,59.14
2019-05-26T10:20:09.473Z,58.51
2019-05-26T10:22:38.384Z,58.18
2019-05-26T10:25:08.663Z,61.93
2019-05-26T10:27:37.796Z,59.92
2019-05-26T10:30:08.679Z,61.26
2019-05-26T10:32:37.629Z,62.97
2019-05-26T10:35:09.896Z,59.48
2019-05-26T10:37:38.992Z,60.63
2019-05-26T10:40:09.593Z,57.63
2019-05-26T10:42:38.414Z,59.10
2019-05-26T10:45:09.448Z,57.76
2019-05-26T10:47:38.426Z,56.51
2019-05-26T10:50:08.614Z,57.54
2019-05-26T10:52:37.567Z,58.06
2019-05-26T10:55:08.013Z,58.80
2019-05-26T10:57:37.074Z,57.81
2019-05-26T11:00:10.068Z,57.72
2019-05-26T11:02:39.070Z,55.00
2019-05-26T11:05:08.555Z,55.03
2019-05-26T11:07:37.369Z,56.00
2019-05-26T11:10:07.286Z,54.30
2019-05-26T11:12:36.376Z,54.98
2019-05-26T11:15:07.439Z,55.94
2019-05-26T11:17:36.305Z,55.07
2019-05-26T11:20:09.938Z,56.29
2019-05-26T11:22:38.798Z,55.87
2019-05-26T11:25:08.383Z,55.48
2019-05-26T11:27:37.308Z,55.01
2019-05-26T11:30:08.617Z,53.26
2019-05-26T11:32:37.537Z,53.38
2019-05-26T11:35:06.844Z,52.47
2019-05-26T11:37:35.730Z,53.36
2019-05-26T11:40:06.821Z,50.18
2019-05-26T11:42:35.764Z,53.02
2019-05-26T11:45:07.346Z,52.01
2019-05-26T11:47:36.210Z,53.21
2019-05-26T11:50:06.988Z,52.42
2019-05-26T11:52:35.937Z,49.79
2019-05-26T11:55:06.727Z,49.01
2019-05-26T11:57:37.063Z,49.47
2019-05-26T12:00:13.333Z,49.77
2019-05-26T12:02:42.765Z,50.15
2019-05-26T12:05:12.784Z,51.13
2019-05-26T12:07:41.673Z,49.13
2019-05-26T12:10:14.192Z,50.56
2019-05-26T12:12:42.530Z,49.80
2019-05-26T12:15:13.475Z,50.90
2019-05-26T12:17:42.359Z,50.37
2019-05-26T12:20:13.262Z,50.98
2019-05-26T12:22:42.193Z,50.82
2019-05-26T12:25:12.310Z,52.04
2019-05-26T12:27:41.201Z,53.23
2019-05-26T12:30:12.430Z,51.93
2019-05-26T12:32:41.344Z,53.22
2019-05-26T12:35:12.904Z,52.72
2019-05-26T12:37:43.217Z,52.77
2019-05-26T12:40:13.255Z,53.33
2019-05-26T12:42:42.226Z,53.55
2019-05-26T12:45:12.450Z,54.11
2019-05-26T12:47:41.356Z,54.52
2019-05-26T12:50:10.990Z,55.75
2019-05-26T12:52:39.841Z,54.87
2019-05-26T12:55:10.202Z,54.82
2019-05-26T12:57:39.169Z,55.78
2019-05-26T13:00:09.395Z,54.84
2019-05-26T13:02:38.279Z,54.16
2019-05-26T13:05:09.263Z,55.20
2019-05-26T13:07:39.640Z,56.39
2019-05-26T13:10:09.527Z,54.89
2019-05-26T13:12:38.901Z,55.92
2019-05-26T13:15:09.956Z,54.39
2019-05-26T13:17:38.796Z,54.16
2019-05-26T13:20:09.612Z,56.32
2019-05-26T13:22:39.973Z,56.40
2019-05-26T13:25:10.898Z,56.86
2019-05-26T13:27:39.786Z,56.65
2019-05-26T13:30:11.978Z,57.01
2019-05-26T13:32:41.049Z,57.14
2019-05-26T13:35:11.368Z,57.72
2019-05-26T13:37:40.265Z,58.15
2019-05-26T13:40:10.319Z,58.70
2019-05-26T13:42:39.173Z,58.36
2019-05-26T13:45:21.862Z,58.35
2019-05-26T13:47:40.163Z,58.31
2019-05-26T13:50:10.025Z,58.91
2019-05-26T13:52:38.934Z,58.44
2019-05-26T13:55:11.809Z,58.03
2019-05-26T13:57:41.638Z,58.51
2019-05-26T14:00:14.151Z,57.92
2019-05-26T14:02:43.103Z,57.27
2019-05-26T14:05:13.575Z,57.46
2019-05-26T14:07:43.851Z,57.50
2019-05-26T14:10:14.714Z,57.36
2019-05-26T14:12:43.783Z,56.81
2019-05-26T14:15:13.709Z,57.51
2019-05-26T14:17:43.391Z,57.23
2019-05-26T14:20:14.602Z,56.92
2019-05-26T14:22:44.469Z,56.24
2019-05-26T14:25:15.587Z,56.60
2019-05-26T14:27:45.220Z,56.98
2019-05-26T14:30:14.317Z,57.16
2019-05-26T14:32:43.210Z,57.11
2019-05-26T14:35:12.919Z,57.03
2019-05-26T14:37:41.808Z,56.38
2019-05-26T14:40:11.683Z,56.79
2019-05-26T14:42:40.616Z,55.49
2019-05-26T14:45:10.001Z,53.72
2019-05-26T14:47:38.807Z,53.90
2019-05-26T14:50:08.389Z,52.85
2019-05-26T14:52:37.412Z,52.11
2019-05-26T14:55:06.801Z,53.10
2019-05-26T14:57:35.806Z,51.83
2019-05-26T15:00:10.751Z,51.61
2019-05-26T15:02:39.834Z,51.70
2019-05-26T15:05:09.509Z,52.07
2019-05-26T15:07:38.544Z,53.75
2019-05-26T15:10:08.623Z,52.04
2019-05-26T15:12:37.651Z,53.31
2019-05-26T15:15:08.099Z,51.90
2019-05-26T15:17:36.970Z,51.66
2019-05-26T15:20:07.621Z,51.67
2019-05-26T15:22:36.906Z,51.06
2019-05-26T15:25:08.085Z,50.37
2019-05-26T15:27:36.941Z,48.24
2019-05-26T15:30:06.824Z,47.00
2019-05-26T15:32:35.764Z,47.00
2019-05-26T15:35:06.729Z,45.27
2019-05-26T15:37:35.574Z,48.46
2019-05-26T15:40:07.199Z,46.42
2019-05-26T15:42:36.025Z,46.66
2019-05-26T15:45:07.005Z,45.80
2019-05-26T15:47:35.954Z,46.66
2019-05-26T15:50:08.958Z,43.84
2019-05-26T15:52:37.993Z,46.17
2019-05-26T15:55:07.234Z,46.19
2019-05-26T15:57:36.229Z,46.08
2019-05-26T16:00:09.049Z,46.02
2019-05-26T16:02:37.904Z,45.26
2019-05-26T16:05:08.318Z,45.68
2019-05-26T16:07:37.126Z,44.75
2019-05-26T16:10:07.911Z,45.63
2019-05-26T16:12:36.855Z,45.42
2019-05-26T16:15:12.224Z,45.78
2019-05-26T16:17:41.081Z,43.85
2019-05-26T16:20:11.891Z,45.16
2019-05-26T16:22:40.911Z,43.42
2019-05-26T16:25:10.224Z,44.79
2019-05-26T16:27:39.102Z,43.50
2019-05-26T16:30:08.818Z,44.48
2019-05-26T16:32:37.702Z,43.75
2019-05-26T16:35:07.113Z,44.11
2019-05-26T16:37:36.000Z,43.42
2019-05-26T16:40:06.383Z,43.67
2019-05-26T16:42:35.323Z,42.42
2019-05-26T16:45:06.035Z,42.73
2019-05-26T16:47:34.844Z,42.79
2019-05-26T16:50:04.504Z,41.92
2019-05-26T16:52:33.458Z,41.72
2019-05-26T16:55:02.333Z,42.37
2019-05-26T16:57:31.222Z,41.93
2019-05-26T17:00:00.230Z,43.12
2019-05-26T17:02:29.111Z,39.41
2019-05-26T17:04:58.000Z,40.88
2019-05-26T17:07:26.890Z,39.84
2019-05-26T17:09:55.782Z,39.38
2019-05-26T17:12:24.680Z,39.39
2019-05-26T17:14:53.565Z,40.60
2019-05-26T17:17:23.993Z,38.19
2019-05-26T17:19:53.046Z,39.33
2019-05-26T17:22:22.696Z,39.31
2019-05-26T17:24:51.587Z,38.49
2019-05-26T17:27:20.686Z,39.81
2019-05-26T17:29:49.584Z,40.94
2019-05-26T17:32:18.481Z,40.31
2019-05-26T17:34:47.357Z,39.67
2019-05-26T17:37:16.247Z,41.69
2019-05-26T17:39:45.140Z,40.86
2019-05-26T17:42:14.030Z,40.71
2019-05-26T17:44:42.924Z,41.13
2019-05-26T17:47:12.532Z,41.15
2019-05-26T17:49:41.423Z,41.78
2019-05-26T17:52:11.340Z,41.68
2019-05-26T17:54:40.227Z,41.86
2019-05-26T17:57:09.337Z,41.59
2019-05-26T17:59:38.216Z,42.00
2019-05-26T18:02:07.098Z,41.81
2019-05-26T18:04:36.130Z,41.60
2019-05-26T18:07:05.664Z,42.78
2019-05-26T18:09:43.648Z,42.54
2019-05-26T18:12:05.127Z,42.32
2019-05-26T18:14:34.022Z,41.79
2019-05-26T18:17:02.911Z,41.47
2019-05-26T18:19:31.806Z,42.16
2019-05-26T18:22:00.694Z,41.98
2019-05-26T18:24:29.585Z,40.48
2019-05-26T18:26:58.578Z,39.87
2019-05-26T18:29:27.358Z,40.75
2019-05-26T18:31:56.358Z,42.01
2019-05-26T18:34:25.359Z,43.05
2019-05-26T18:36:54.246Z,44.21
2019-05-26T18:39:23.140Z,45.11
2019-05-26T18:41:52.028Z,45.50
2019-05-26T18:44:23.479Z,46.15
2019-05-26T18:46:53.713Z,45.77
2019-05-26T18:49:22.800Z,45.59
2019-05-26T18:51:51.688Z,47.21
2019-05-26T18:54:20.624Z,49.51
2019-05-26T18:56:49.572Z,49.36
2019-05-26T18:59:18.475Z,50.02
2019-05-26T19:01:47.358Z,50.10
2019-05-26T19:04:16.351Z,50.71
2019-05-26T19:06:45.243Z,50.79
2019-05-26T19:09:14.132Z,50.14
2019-05-26T19:11:43.024Z,52.03
2019-05-26T19:14:12.222Z,51.62
2019-05-26T19:16:41.113Z,52.04
2019-05-26T19:19:10.925Z,51.62
2019-05-26T19:21:39.817Z,52.38
2019-05-26T19:24:09.632Z,51.24
2019-05-26T19:26:38.522Z,52.07
2019-05-26T19:29:07.706Z,53.86
2019-05-26T19:31:36.511Z,55.17
2019-05-26T19:34:05.504Z,53.63
2019-05-26T19:36:35.930Z,53.40
2019-05-26T19:39:07.688Z,53.90
2019-05-26T19:41:39.124Z,53.66
2019-05-26T19:44:10.707Z,54.79
2019-05-26T19:46:39.693Z,54.61
2019-05-26T19:49:08.751Z,53.92
2019-05-26T19:51:37.680Z,54.86
2019-05-26T19:54:06.668Z,55.55
2019-05-26T19:56:35.562Z,55.25
2019-05-26T19:59:04.859Z,55.05
2019-05-26T20:01:33.752Z,55.55
2019-05-26T20:04:02.641Z,54.74
2019-05-26T20:06:31.535Z,56.86
2019-05-26T20:09:00.434Z,57.31
2019-05-26T20:11:29.224Z,57.38
2019-05-26T20:13:58.104Z,57.56
2019-05-26T20:16:30.565Z,56.78
2019-05-26T20:18:57.733Z,56.36
2019-05-26T20:21:26.627Z,56.39
2019-05-26T20:23:55.515Z,57.08
2019-05-26T20:26:24.406Z,56.74
2019-05-26T20:28:53.319Z,56.42
2019-05-26T20:31:22.090Z,57.07
2019-05-26T20:33:50.980Z,57.15
2019-05-26T20:36:19.866Z,57.60
2019-05-26T20:38:48.756Z,57.22
2019-05-26T20:41:17.648Z,57.45
2019-05-26T20:43:46.539Z,57.22
2019-05-26T20:46:15.431Z,56.94
2019-05-26T20:48:44.322Z,57.34
2019-05-26T20:51:13.215Z,56.88
2019-05-26T20:53:42.107Z,58.88
2019-05-26T20:56:11.711Z,60.54
2019-05-26T20:58:40.682Z,59.62
2019-05-26T21:01:10.313Z,59.98
2019-05-26T21:04:01.379Z,60.63
2019-05-26T21:06:30.219Z,59.25
2019-05-26T21:08:59.164Z,58.44
2019-05-26T21:11:28.001Z,57.41
2019-05-26T21:13:56.894Z,56.67
2019-05-26T21:16:25.780Z,58.89
2019-05-26T21:18:54.673Z,58.80
2019-05-26T21:21:23.569Z,60.11
2019-05-26T21:23:52.455Z,61.04
2019-05-26T21:26:21.358Z,61.04
2019-05-26T21:28:50.549Z,60.71
2019-05-26T21:31:19.434Z,59.35
2019-05-26T21:33:48.327Z,58.28
2019-05-26T21:36:17.220Z,58.20
2019-05-26T21:38:47.235Z,56.67
2019-05-26T21:41:16.136Z,57.16
2019-05-26T21:43:45.531Z,57.44
2019-05-26T21:46:14.423Z,56.62
2019-05-26T21:48:43.314Z,56.54
2019-05-26T21:51:12.203Z,56.90
2019-05-26T21:53:41.095Z,56.43
2019-05-26T21:56:10.599Z,56.58
2019-05-26T21:58:39.594Z,56.67
2019-05-26T22:01:08.895Z,56.42
2019-05-26T22:03:37.786Z,56.47
2019-05-26T22:06:06.569Z,58.03
2019-05-26T22:08:35.479Z,57.80
2019-05-26T22:11:04.459Z,57.81
2019-05-26T22:13:33.354Z,57.32
2019-05-26T22:16:02.240Z,57.84
2019-05-26T22:18:31.134Z,58.08
2019-05-26T22:21:00.029Z,57.82
2019-05-26T22:23:28.915Z,58.79
2019-05-26T22:25:57.702Z,59.00
2019-05-26T22:28:26.595Z,58.26
2019-05-26T22:30:55.386Z,57.00
2019-05-26T22:33:24.275Z,57.33
2019-05-26T22:35:53.267Z,57.65
2019-05-26T22:38:22.060Z,60.17
2019-05-26T22:40:50.949Z,60.59
2019-05-26T22:43:19.946Z,60.96
2019-05-26T22:45:48.835Z,61.90
2019-05-26T22:48:17.725Z,61.68
2019-05-26T22:50:46.615Z,60.91
2019-05-26T22:53:15.511Z,60.42
2019-05-26T22:55:44.401Z,60.70
2019-05-26T22:58:13.291Z,60.28
2019-05-26T23:00:42.386Z,60.21
2019-05-26T23:03:11.483Z,59.71
2019-05-26T23:05:40.379Z,59.40
2019-05-26T23:08:09.673Z,59.18
2019-05-26T23:10:38.565Z,59.06
2019-05-26T23:13:08.073Z,59.32
2019-05-26T23:15:37.678Z,58.92
2019-05-26T23:18:06.574Z,60.14
2019-05-26T23:20:35.463Z,59.73
2019-05-26T23:23:04.363Z,59.22
2019-05-26T23:25:33.245Z,59.59
2019-05-26T23:28:02.138Z,59.47
2019-05-26T23:30:31.130Z,59.81
2019-05-26T23:33:00.024Z,59.71
2019-05-26T23:35:28.911Z,59.51
2019-05-26T23:37:57.806Z,58.87
2019-05-26T23:40:26.692Z,59.10
2019-05-26T23:42:55.587Z,58.60
2019-05-26T23:45:24.475Z,58.73
2019-05-26T23:47:53.367Z,58.21
2019-05-26T23:50:22.258Z,59.42
2019-05-26T23:52:51.217Z,60.33
2019-05-26T23:55:20.169Z,60.66
2019-05-26T23:57:49.033Z,59.54
